To NAV CANADA Home Page Login to a new session Search on AWWS site Disclaimer Vers la page française équivalente Tips FAQ What's new on the site To the Forecasts and Observations / NOTAM section To "File a Flight Plan" website Publications and other links Update of the User's profile FIC Telephone Numbers My Weather Data Folder Route Weather Data Regional Weather Data Local Weather Data To the Forecasts and Observations / NOTAM section
Request Generated 04/24/2019 at 16:05:47 UTC . Weather information available at that time is displayed.

METAR/TAF

WASKAGANISH/QC    

LWIS CYKQ 241500Z AUTO VRB03KT 08/M03 A2994=
LWIS CYKQ 241400Z AUTO 32004KT 240V350 05/M04 A2996=
LWIS CYKQ 241300Z AUTO VRB02KT 03/M06 A2996=

TAF CYKQ 241438Z 2415/2421 FCST NOT AVBL DUE NO OBS
RMK NXT FCST WILL BE ISSUED AT 251445Z=
Your time UTC time
Weather data provided by Environment Canada and NAV CANADA